Monday, November 20, 2017, 4:11 AM GMT
Back to Local

CYTR, Trenton, Ont.

Location: , , Canada Lat: 44.117
Local Time: 4:11 AM GMT ( 4:11 GMT) Lon: -77.533
Time Zone: GMT Elev: 278 ft

Show me the last for .
Show Coded

Time T Td Feel RH Dir Speed Gust Alt SLP Vis Weather Sky Remarks
2017-11-20 03:00 28 23 21 79 290° 7 - 29.76 29.78 15 SCT032 None
2017-11-20 02:00 30 23 18 74 300° 14 20 29.74 29.76 8 -SHSN BKN039 None
2017-11-20 01:00 32 23 23 68 310° 12 - 29.72 29.73 15 FEW035 BKN071 None
2017-11-20 00:00 32 23 20 68 310° 13 18 29.70 29.71 15 FEW034 SCT069 None
2017-11-19 23:00 32 23 23 68 300° 13 - 29.69 29.70 15 SCT036 BKN082 None
2017-11-19 22:00 34 25 26 69 300° 9 - 29.67 29.68 15 BKN032 BKN082 None
2017-11-19 21:00 34 25 22 69 300° 14 20 29.65 29.66 15 SCT026 BKN084 None
2017-11-19 20:00 36 25 27 64 290° 14 - 29.62 29.63 15 BKN026 None
2017-11-19 19:00 36 28 25 74 300° 14 20 29.59 29.60 15 SCT025 BKN046 BKN150 None
2017-11-19 18:00 36 30 25 80 280° 17 - 29.57 29.58 15 SCT025 BKN046 None
2017-11-19 17:00 36 30 29 80 280° 9 - 29.57 29.57 15 BKN026 BKN046 None
2017-11-19 16:00 34 28 22 80 290° 7 22 29.57 29.58 15 BKN022 None
2017-11-19 15:00 32 28 23 86 310° 13 - 29.54 29.55 15 OVC018 None
2017-11-19 14:00 32 27 20 80 310° 13 21 29.49 29.50 15 BKN022 BKN150 None
2017-11-19 13:00 32 27 21 80 300° 17 - 29.46 29.47 15 BKN023 OVC150 Pressure rising rapidly
2017-11-19 12:00 32 28 19 86 310° 16 23 29.39 29.39 15 BKN015 OVC024 Pressure rising rapidly
2017-11-19 11:48 32 28 19 86 300° 13 23 29.37 29.37 10 BKN015 OVC024 Pressure rising rapidly
2017-11-19 11:00 30 30 17 100 310° 16 23 29.30 29.31 3 -SN BKN010 OVC048 Pressure rising rapidly
2017-11-19 10:00 32 32 20 100 330° 15 21 29.22 29.23 6 -SN OVC009 None
2017-11-19 09:00 32 32 19 100 340° 14 22 29.17 29.18 5 -SHRA BR OVC008 None
2017-11-19 08:00 36 36 24 100 360° 12 24 29.12 29.13 4 -SHRA BR OVC007 None
2017-11-19 07:00 37 36 28 93 360° 12 17 29.11 29.11 4 -SHRA BR OVC005 None
2017-11-19 06:00 37 37 29 100 20° 13 - 29.08 29.09 4 -SHRA BR OVC004 None
2017-11-19 05:00 39 39 32 100 30° 13 - 29.10 29.10 4 -SHRA BR OVC005 None

Support USWX by starting your Amazon purchase here.